Yasa Eagle — V7XL3 — position and weather

sailwx.info

Track history (hours):
 
Tides and Currents Weather Stations Pressure Air Temp Water Temp Dewpoint Dewpoint Depression Visibility Wind Speed Wind Dir Waves Ship Positions

Yasa Eagle

Last reported at 2018-Jun-08 09:07 UTC. Time now 2018-Jun-24 03:41 UTC.
Position N 46°12' W 125°32'.
Warning: this ship's position is 15 days out of date.

Length 229 m; draft 13.1 m.

Type: Cargo ship. MMSI: 538004507.

Date/timePositionNaut miles runAvg speedWind from/ knotsBaromVisibWave heightAir tempDewpointWater temp
2018-Jun-08 09:07N 46°12' W 125°32'111.0
2018-Jun-08 08:59N 46°12' W 125°30'511.0
2018-Jun-08 08:30N 46°12' W 125°23'610.9
2018-Jun-08 07:58N 46°12' W 125°14'511.0
2018-Jun-08 07:31N 46°12' W 125°07'610.8
2018-Jun-08 06:59N 46°12' W 124°59'510.7
2018-Jun-08 06:30N 46°12' W 124°51'510.7
2018-Jun-08 06:00N 46°12' W 124°44'510.4
2018-Jun-08 05:31N 46°12' W 124°36'510.6
2018-Jun-08 05:01N 46°12' W 124°29'510.4
2018-Jun-08 04:30N 46°12' W 124°21'510.2
2018-Jun-08 04:00N 46°12' W 124°14'510.0
2018-Jun-08 03:31N 46°14' W 124°07'4 8.7
2018-Jun-08 03:01N 46°15' W 124°01'510.0
2018-Jun-08 02:31N 46°12' W 123°56'4 8.3
2018-Jun-08 02:01N 46°12' W 123°50'5 9.5
2018-Jun-08 01:31N 46°14' W 123°43'510.4
2018-Jun-08 01:01N 46°15' W 123°36'611.4
2018-Jun-08 00:31N 46°16' W 123°28'510.8
2018-Jun-08 00:01N 46°11' W 123°26'611.2
2018-Jun-07 23:30N 46°09' W 123°18'713.1
2018-Jun-07 23:01N 46°11' W 123°10'912.9
2018-Jun-07 22:20N 46°07' W 122°59'310.5
2018-Jun-07 22:00N 46°05' W 122°55'4 8.1
2018-Jun-07 21:30N 46°02' W 122°53'0 0.1
2018-Jun-07 21:00N 46°02' W 122°53'0 0.0
2018-Jun-07 20:30N 46°02' W 122°53'0 0.0
2018-Jun-07 20:00N 46°02' W 122°53'0 0.0
2018-Jun-07 19:09N 46°02' W 122°53'0 0.0
2018-Jun-07 18:48N 46°02' W 122°53'0 0.0
2018-Jun-07 18:30N 46°02' W 122°53'0 0.0
2018-Jun-07 18:00N 46°02' W 122°53'0 0.0
2018-Jun-07 16:24N 46°02' W 122°53'0 0.0
2018-Jun-07 16:00N 46°02' W 122°53'0 0.0
2018-Jun-07 15:30N 46°02' W 122°53'0 0.0
2018-Jun-07 14:57N 46°02' W 122°53'0 0.0
2018-Jun-07 14:24N 46°02' W 122°53'0 0.0
2018-Jun-07 14:00N 46°02' W 122°53'0 0.0
2018-Jun-07 13:30N 46°02' W 122°53'0 0.0
2018-Jun-07 12:57N 46°02' W 122°53'0 0.0
2018-Jun-07 12:30N 46°02' W 122°53'0 0.0
2018-Jun-07 11:57N 46°02' W 122°53'0 0.0
2018-Jun-07 11:15N 46°02' W 122°53'0 0.0
2018-Jun-07 10:57N 46°02' W 122°53'0 0.0
2018-Jun-07 10:15N 46°02' W 122°53'0 0.0
2018-Jun-07 10:00N 46°02' W 122°53'0 0.0
2018-Jun-07 09:30N 46°02' W 122°53'0 0.0
2018-Jun-07 09:00N 46°02' W 122°53'0 0.0
2018-Jun-07 08:12N 46°02' W 122°53'0 0.0
2018-Jun-07 07:54N 46°02' W 122°53'0 0.0
2018-Jun-07 07:30N 46°02' W 122°53'0 0.0
2018-Jun-07 06:10N 46°02' W 122°53'0 0.6
2018-Jun-07 06:01N 46°02' W 122°52'0 0.4
2018-Jun-07 05:28N 46°02' W 122°52'0 0.0
2018-Jun-07 04:58N 46°02' W 122°52'0 0.0
2018-Jun-07 04:28N 46°02' W 122°52'0 0.0
2018-Jun-07 03:43N 46°02' W 122°52'0 0.0
2018-Jun-07 03:16N 46°02' W 122°52'0 0.0
2018-Jun-07 02:58N 46°02' W 122°52'0 0.0
2018-Jun-07 02:16N 46°02' W 122°52'0 0.0
2018-Jun-07 01:58N 46°02' W 122°52'0 0.0
2018-Jun-07 01:22N 46°02' W 122°52'0 0.0
2018-Jun-07 00:55N 46°02' W 122°52'0 0.0
2018-Jun-07 00:10N 46°02' W 122°52'0 0.0
2018-Jun-06 23:52N 46°02' W 122°52'0 0.0
2018-Jun-06 23:16N 46°02' W 122°52'0 0.0
2018-Jun-06 22:40N 46°02' W 122°52'0 0.0
2018-Jun-06 22:13N 46°02' W 122°52'0 0.0
2018-Jun-06 21:55N 46°02' W 122°52'0 0.0
2018-Jun-06 21:28N 46°02' W 122°52'0 0.0
2018-Jun-06 20:58N 46°02' W 122°52'0 0.0
2018-Jun-06 20:19N 46°02' W 122°52'0 0.0
2018-Jun-06 19:46N 46°02' W 122°52'0 0.0
2018-Jun-06 19:13N 46°02' W 122°52'0 0.0
2018-Jun-06 18:52N 46°02' W 122°52'0 0.0
2018-Jun-06 18:28N 46°02' W 122°52'0 0.0
2018-Jun-06 17:58N 46°02' W 122°52'0 0.0
2018-Jun-06 17:25N 46°02' W 122°52'0 0.0
2018-Jun-06 16:58N 46°02' W 122°52'0 0.0
2018-Jun-06 16:28N 46°02' W 122°52'0 0.0
2018-Jun-06 15:58N 46°02' W 122°52'0 0.0
2018-Jun-06 15:25N 46°02' W 122°52'0 0.0
2018-Jun-06 14:52N 46°02' W 122°52'0 0.0
2018-Jun-06 14:28N 46°02' W 122°52'0 0.0
2018-Jun-06 13:55N 46°02' W 122°52'0 0.0
2018-Jun-06 13:19N 46°02' W 122°52'0 0.0
2018-Jun-06 12:55N 46°02' W 122°52'0 0.0
2018-Jun-06 12:28N 46°02' W 122°52'0 0.0
2018-Jun-06 11:55N 46°02' W 122°52'0 0.0
2018-Jun-06 11:28N 46°02' W 122°52'0 0.0
2018-Jun-06 10:55N 46°02' W 122°52'0 0.0
2018-Jun-06 10:28N 46°02' W 122°52'0 0.0
2018-Jun-06 09:58N 46°02' W 122°52'0 0.0
2018-Jun-06 09:28N 46°02' W 122°52'0 0.0
2018-Jun-06 08:55N 46°02' W 122°52'0 0.0
2018-Jun-06 08:22N 46°02' W 122°52'0 0.0
2018-Jun-06 07:52N 46°02' W 122°52'0 0.0
2018-Jun-06 07:28N 46°02' W 122°52'0 0.0
2018-Jun-06 06:55N 46°02' W 122°52'0 0.0
2018-Jun-06 06:05N 46°02' W 122°52'0 0.0
2018-Jun-06 05:58N 46°02' W 122°52'0 0.0
2018-Jun-06 05:28N 46°02' W 122°52'0 0.0
2018-Jun-06 04:16N 46°02' W 122°52'0 0.0
2018-Jun-06 03:49N 46°02' W 122°52'0 0.0
2018-Jun-06 03:22N 46°02' W 122°52'0 0.0
2018-Jun-06 02:49N 46°02' W 122°52'0 0.0
2018-Jun-06 02:22N 46°02' W 122°52'0 0.0
2018-Jun-06 01:58N 46°02' W 122°52'0 0.0
2018-Jun-06 01:25N 46°02' W 122°52'0 0.0
2018-Jun-06 00:46N 46°02' W 122°52'0 0.0
2018-Jun-06 00:28N 46°02' W 122°52'0 0.0
2018-Jun-05 23:55N 46°02' W 122°52'0 0.0
2018-Jun-05 23:28N 46°02' W 122°52'0 0.0
2018-Jun-05 22:58N 46°02' W 122°52'0 0.0
2018-Jun-05 22:22N 46°02' W 122°52'0 0.0
2018-Jun-05 21:58N 46°02' W 122°52'0 0.0
2018-Jun-05 21:28N 46°02' W 122°52'0 0.0
2018-Jun-05 20:58N 46°02' W 122°52'0 0.0
2018-Jun-05 20:25N 46°02' W 122°52'0 0.0
2018-Jun-05 19:58N 46°02' W 122°52'0 0.0
2018-Jun-05 19:28N 46°02' W 122°52'0 0.0
2018-Jun-05 18:52N 46°02' W 122°52'0 0.0
2018-Jun-05 18:28N 46°02' W 122°52'0 0.0
2018-Jun-05 17:25N 46°02' W 122°52'0 0.0
2018-Jun-05 16:43N 46°02' W 122°52'0 0.0
2018-Jun-05 16:10N 46°02' W 122°52'0 0.0
2018-Jun-05 15:37N 46°02' W 122°52'0 0.0
2018-Jun-05 15:25N 46°02' W 122°52'0 0.0
2018-Jun-05 14:55N 46°02' W 122°52'0 0.0
2018-Jun-05 14:25N 46°02' W 122°52'0 0.0
2018-Jun-05 13:55N 46°02' W 122°52'0 0.0
2018-Jun-05 13:28N 46°02' W 122°52'0 0.0
2018-Jun-05 12:34N 46°02' W 122°52'0 0.0
2018-Jun-05 12:28N 46°02' W 122°52'0 0.0
2018-Jun-05 11:31N 46°02' W 122°52'0 0.1
2018-Jun-05 11:25N 46°02' W 122°52'0 0.0
2018-Jun-05 10:58N 46°02' W 122°52'0 0.0
2018-Jun-05 10:28N 46°02' W 122°52'0 0.0
2018-Jun-05 09:55N 46°02' W 122°52'0 0.0
2018-Jun-05 09:28N 46°02' W 122°52'0 0.0
2018-Jun-05 08:58N 46°02' W 122°52'0 0.0
2018-Jun-05 08:28N 46°02' W 122°52'0 0.0
2018-Jun-05 07:16N 46°02' W 122°52'0 0.0
2018-Jun-05 06:37N 46°02' W 122°52'0 0.0
2018-Jun-05 06:10N 46°02' W 122°52'0 0.0
2018-Jun-05 05:52N 46°02' W 122°52'0 0.0
2018-Jun-05 05:28N 46°02' W 122°52'0 0.0
2018-Jun-05 04:55N 46°02' W 122°52'0 0.0
2018-Jun-05 04:16N 46°02' W 122°52'0 0.0
2018-Jun-05 03:49N 46°02' W 122°52'0 0.0
2018-Jun-05 03:28N 46°02' W 122°52'0 0.0
2018-Jun-05 01:40N 46°02' W 122°52'0 0.0
2018-Jun-05 01:13N 46°02' W 122°52'0 0.0
2018-Jun-05 00:58N 46°02' W 122°52'0 0.0
2018-Jun-05 00:28N 46°02' W 122°52'0 0.0
2018-Jun-04 23:58N 46°02' W 122°52'0 0.0
2018-Jun-04 23:28N 46°02' W 122°52'0 0.0
2018-Jun-04 22:58N 46°02' W 122°52'0 0.0
2018-Jun-04 22:25N 46°02' W 122°52'0 0.0
2018-Jun-04 21:55N 46°02' W 122°52'0 0.0
2018-Jun-04 21:28N 46°02' W 122°52'0 0.0
2018-Jun-04 20:55N 46°02' W 122°52'0 0.0
2018-Jun-04 20:28N 46°02' W 122°52'0 0.0
2018-Jun-04 19:23N 46°02' W 122°52'0 1.1
2018-Jun-04 18:59N 46°02' W 122°53'2 4.4
2018-Jun-04 18:30N 46°04' W 122°53'1 2.6
2018-Jun-04 18:00N 46°05' W 122°54'1 1.7
2018-Jun-04 17:28N 46°05' W 122°56'0 0.1
2018-Jun-04 17:00N 46°06' W 122°56'0 0.0
2018-Jun-04 16:30N 46°06' W 122°56'0 0.0
2018-Jun-04 15:58N 46°06' W 122°56'0 0.0
2018-Jun-04 15:31N 46°06' W 122°56'0 0.0
2018-Jun-04 15:00N 46°06' W 122°56'0 0.0
2018-Jun-04 14:30N 46°06' W 122°56'0 0.0
2018-Jun-04 13:18N 46°06' W 122°56'0 0.0
2018-Jun-04 12:58N 46°06' W 122°56'0 0.0
2018-Jun-04 12:09N 46°06' W 122°56'0 0.0
2018-Jun-04 11:58N 46°06' W 122°56'0 0.1
2018-Jun-04 11:21N 46°06' W 122°56'0 0.1
2018-Jun-04 10:58N 46°06' W 122°56'0 0.0
2018-Jun-04 10:31N 46°06' W 122°56'0 0.0
2018-Jun-04 10:00N 46°06' W 122°56'0 0.0
2018-Jun-04 09:31N 46°06' W 122°56'0 0.0
2018-Jun-04 09:01N 46°06' W 122°56'0 0.0
2018-Jun-04 08:30N 46°06' W 122°56'0 0.0
2018-Jun-04 08:01N 46°06' W 122°56'0 0.0
2018-Jun-04 07:30N 46°06' W 122°56'0 0.1
2018-Jun-04 06:58N 46°06' W 122°56'0 0.0
2018-Jun-04 06:30N 46°06' W 122°56'0 0.0
2018-Jun-04 05:55N 46°06' W 122°56'0 0.0
2018-Jun-04 05:30N 46°06' W 122°56'0 0.0
2018-Jun-04 05:00N 46°06' W 122°56'0 0.1
2018-Jun-04 04:28N 46°06' W 122°56'0 0.0
2018-Jun-04 04:01N 46°06' W 122°56'0 0.1
2018-Jun-04 03:30N 46°06' W 122°56'0 0.1
2018-Jun-04 02:54N 46°06' W 122°56'0 0.1
2018-Jun-04 02:31N 46°06' W 122°56'0 0.1
2018-Jun-04 02:00N 46°06' W 122°56'0 0.0
2018-Jun-04 01:28N 46°06' W 122°56'0 0.1
2018-Jun-04 01:01N 46°06' W 122°56'0 0.1
2018-Jun-04 00:27N 46°06' W 122°56'0 0.0
2018-Jun-04 00:00N 46°06' W 122°56'0 0.0
2018-Jun-03 23:25N 46°06' W 122°56'0 0.0
2018-Jun-03 22:46N 46°06' W 122°56'0 0.0
2018-Jun-03 22:25N 46°06' W 122°56'0 0.0
2018-Jun-03 21:52N 46°06' W 122°56'0 0.0
2018-Jun-03 21:28N 46°06' W 122°56'0 0.0
2018-Jun-03 21:00N 46°06' W 122°56'0 0.0
2018-Jun-03 20:28N 46°06' W 122°56'0 0.0
2018-Jun-03 19:52N 46°06' W 122°56'0 0.0
2018-Jun-03 19:28N 46°06' W 122°56'0 0.0
2018-Jun-03 19:01N 46°06' W 122°56'0 0.0
2018-Jun-03 17:34N 46°06' W 122°56'0 0.0
2018-Jun-03 17:31N 46°06' W 122°56'0 0.0
2018-Jun-03 16:58N 46°06' W 122°56'0 0.0
2018-Jun-03 16:28N 46°06' W 122°56'0 0.0
2018-Jun-03 16:00N 46°06' W 122°56'0 0.0
2018-Jun-03 15:24N 46°06' W 122°56'0 0.0
2018-Jun-03 15:00N 46°06' W 122°56'0 0.1
2018-Jun-03 14:31N 46°06' W 122°56'0 0.0
2018-Jun-03 13:58N 46°06' W 122°56'0 0.0
2018-Jun-03 13:15N 46°06' W 122°56'0 0.1
2018-Jun-03 12:58N 46°06' W 122°56'0 0.1
2018-Jun-03 12:19N 46°06' W 122°56'0 0.1
2018-Jun-03 12:01N 46°06' W 122°56'0 0.1
2018-Jun-03 11:27N 46°06' W 122°56'0 0.1
2018-Jun-03 10:57N 46°06' W 122°56'0 0.0
2018-Jun-03 10:31N 46°06' W 122°56'0 0.1
2018-Jun-03 10:01N 46°06' W 122°56'0 0.0
2018-Jun-03 09:31N 46°06' W 122°56'0 0.1
2018-Jun-03 08:58N 46°06' W 122°56'0 0.0
2018-Jun-03 08:31N 46°06' W 122°56'0 0.0
2018-Jun-03 07:49N 46°06' W 122°56'0 0.0
2018-Jun-03 07:28N 46°06' W 122°56'0 0.1
2018-Jun-03 06:58N 46°06' W 122°56'0 0.1
2018-Jun-03 06:31N 46°06' W 122°56'0 0.1
2018-Jun-03 06:01N 46°06' W 122°56'0 0.1
2018-Jun-03 05:30N 46°06' W 122°56'0 0.0
2018-Jun-03 04:58N 46°06' W 122°56'0 0.1
2018-Jun-03 04:30N 46°06' W 122°56'0 0.1
2018-Jun-03 03:46N 46°06' W 122°56'0 0.2
2018-Jun-03 03:30N 46°06' W 122°56'0 0.1
2018-Jun-03 03:00N 46°06' W 122°56'0 0.1
2018-Jun-03 02:30N 46°06' W 122°56'0 0.0
2018-Jun-03 01:40N 46°06' W 122°56'0 0.0
2018-Jun-03 01:16N 46°06' W 122°56'0 0.1
2018-Jun-03 00:58N 46°06' W 122°56'0 0.0
2018-Jun-03 00:31N 46°06' W 122°56'0 0.1
2018-Jun-03 00:01N 46°06' W 122°56'0 0.1
2018-Jun-02 23:25N 46°06' W 122°56'0 0.1
2018-Jun-02 23:00N 46°06' W 122°56'0 0.1
2018-Jun-02 22:24N 46°06' W 122°56'0 0.0
2018-Jun-02 22:01N 46°06' W 122°56'0 0.0
2018-Jun-02 21:30N 46°06' W 122°56'0 0.1
2018-Jun-02 20:55N 46°06' W 122°56'0 0.1
2018-Jun-02 20:28N 46°06' W 122°56'0 0.0
2018-Jun-02 19:45N 46°06' W 122°56'0 0.0
2018-Jun-02 19:13N 46°06' W 122°56'0 0.0
2018-Jun-02 18:46N 46°06' W 122°56'0 0.0
2018-Jun-02 18:28N 46°06' W 122°56'0 0.0
2018-Jun-02 17:57N 46°06' W 122°56'0 0.0
2018-Jun-02 17:30N 46°06' W 122°56'0 0.0
2018-Jun-02 16:57N 46°06' W 122°56'0 0.0
2018-Jun-02 16:30N 46°06' W 122°56'0 0.1
2018-Jun-02 16:00N 46°06' W 122°56'0 0.0
2018-Jun-02 15:30N 46°06' W 122°56'0 0.1
2018-Jun-02 14:43N 46°06' W 122°56'0 0.0
2018-Jun-02 14:16N 46°06' W 122°56'0 0.0
2018-Jun-02 14:01N 46°06' W 122°56'0 0.0
2018-Jun-02 13:18N 46°06' W 122°56'0 0.1
2018-Jun-02 12:57N 46°06' W 122°56'0 0.0
2018-Jun-02 12:28N 46°06' W 122°56'0 0.0
2018-Jun-02 12:01N 46°06' W 122°56'0 0.0
2018-Jun-02 11:30N 46°06' W 122°56'0 0.1
2018-Jun-02 11:00N 46°06' W 122°56'0 0.1
2018-Jun-02 10:27N 46°06' W 122°56'0 0.1
2018-Jun-02 10:01N 46°06' W 122°56'0 0.0
2018-Jun-02 09:31N 46°06' W 122°56'0 0.0
2018-Jun-02 08:57N 46°06' W 122°56'0 0.0
2018-Jun-02 08:30N 46°06' W 122°56'0 0.0
2018-Jun-02 08:01N 46°06' W 122°56'0 0.1
2018-Jun-02 07:16N 46°06' W 122°56'0 0.0
2018-Jun-02 06:57N 46°06' W 122°56'0 0.0
2018-Jun-02 06:31N 46°06' W 122°56'0 0.0
2018-Jun-02 06:01N 46°06' W 122°56'0 0.0
2018-Jun-02 05:31N 46°06' W 122°56'0 0.0
2018-Jun-02 05:00N 46°06' W 122°56'0 0.0
2018-Jun-02 04:24N 46°06' W 122°56'0 0.1
2018-Jun-02 03:55N 46°06' W 122°56'0 0.1
2018-Jun-02 03:30N 46°06' W 122°56'0 0.1
2018-Jun-02 03:01N 46°06' W 122°56'0 0.0
2018-Jun-02 02:28N 46°06' W 122°56'0 0.1
2018-Jun-02 01:58N 46°06' W 122°56'0 0.0
2018-Jun-02 01:30N 46°06' W 122°56'0 0.1
2018-Jun-02 00:58N 46°06' W 122°56'0 0.0
2018-Jun-02 00:31N 46°06' W 122°56'0 0.0
2018-Jun-02 00:01N 46°06' W 122°56'0 0.0
2018-Jun-01 23:31N 46°06' W 122°56'0 0.0
2018-Jun-01 22:58N 46°06' W 122°56'0 0.1
2018-Jun-01 22:30N 46°06' W 122°56'0 0.1
2018-Jun-01 22:01N 46°06' W 122°56'0 0.0
2018-Jun-01 21:24N 46°06' W 122°56'0 0.0
2018-Jun-01 21:00N 46°06' W 122°56'0 0.1
2018-Jun-01 20:30N 46°06' W 122°56'0 0.0
2018-Jun-01 20:00N 46°06' W 122°56'0 0.0
2018-Jun-01 19:31N 46°06' W 122°56'0 0.0
2018-Jun-01 19:01N 46°06' W 122°56'0 0.1
2018-Jun-01 18:30N 46°06' W 122°56'0 0.0
2018-Jun-01 18:01N 46°06' W 122°56'0 0.0
2018-Jun-01 17:31N 46°06' W 122°56'0 0.0
2018-Jun-01 17:01N 46°06' W 122°56'0 0.1
2018-Jun-01 16:22N 46°06' W 122°56'0 0.0
2018-Jun-01 16:01N 46°06' W 122°56'0 0.1
2018-Jun-01 15:12N 46°06' W 122°56'0 0.0
2018-Jun-01 14:54N 46°06' W 122°56'0 0.0
2018-Jun-01 14:31N 46°06' W 122°56'0 0.0
2018-Jun-01 13:36N 46°06' W 122°56'0 0.0
2018-Jun-01 13:30N 46°06' W 122°56'0 0.0
2018-Jun-01 12:57N 46°06' W 122°56'0 0.1
2018-Jun-01 12:31N 46°06' W 122°56'0 0.0
2018-Jun-01 11:58N 46°06' W 122°56'0 0.1
2018-Jun-01 11:31N 46°06' W 122°56'0 0.0
2018-Jun-01 11:01N 46°06' W 122°56'0 0.0
2018-Jun-01 10:31N 46°06' W 122°56'0 0.0
2018-Jun-01 10:01N 46°06' W 122°56'0 0.1
2018-Jun-01 09:28N 46°06' W 122°56'0 0.1
2018-Jun-01 08:40N 46°06' W 122°56'0 0.0
2018-Jun-01 08:27N 46°06' W 122°56'0 0.1
2018-Jun-01 08:01N 46°06' W 122°56'0 0.1
2018-Jun-01 07:24N 46°06' W 122°56'0 0.0
2018-Jun-01 06:54N 46°06' W 122°56'0 0.0
2018-Jun-01 06:30N 46°06' W 122°56'0 0.0
2018-Jun-01 05:43N 46°06' W 122°56'0 0.0
2018-Jun-01 05:30N 46°06' W 122°56'0 0.0
2018-Jun-01 04:42N 46°06' W 122°56'0 0.0
2018-Jun-01 04:31N 46°06' W 122°56'0 0.0
2018-Jun-01 04:00N 46°06' W 122°56'0 0.0
2018-Jun-01 03:13N 46°06' W 122°56'0 0.0
2018-Jun-01 02:58N 46°06' W 122°56'0 0.0
2018-Jun-01 02:25N 46°06' W 122°56'0 0.0
2018-Jun-01 01:55N 46°06' W 122°56'0 0.0
2018-Jun-01 01:19N 46°06' W 122°56'0 0.0
2018-Jun-01 00:57N 46°06' W 122°56'0 0.0
2018-Jun-01 00:22N 46°06' W 122°56'0 0.0
2018-Jun-01 00:01N 46°06' W 122°56'0 0.0
2018-May-31 23:28N 46°06' W 122°56'0 0.0
2018-May-31 22:55N 46°06' W 122°56'0 0.0
2018-May-31 22:28N 46°06' W 122°56'0 0.0
2018-May-31 22:00N 46°06' W 122°56'0 0.0
2018-May-31 21:31N 46°06' W 122°56'0 0.0
2018-May-31 20:57N 46°06' W 122°56'0 0.0
2018-May-31 20:30N 46°06' W 122°56'0 0.0
2018-May-31 20:01N 46°06' W 122°56'0 0.0
2018-May-31 19:28N 46°06' W 122°56'0 0.0
2018-May-31 19:01N 46°06' W 122°56'0 0.0
2018-May-31 17:34N 46°06' W 122°56'0 0.0
2018-May-31 17:30N 46°06' W 122°56'0 0.0
2018-May-31 17:01N 46°06' W 122°56'0 0.0
2018-May-31 16:31N 46°06' W 122°56'0 0.0
2018-May-31 15:55N 46°06' W 122°56'0 0.0
2018-May-31 15:30N 46°06' W 122°56'0 0.0
2018-May-31 14:40N 46°06' W 122°56'0 0.3
2018-May-31 14:31N 46°06' W 122°56'0 0.1
2018-May-31 13:54N 46°06' W 122°56'0 0.1
2018-May-31 13:25N 46°06' W 122°56'0 0.0
2018-May-31 12:58N 46°06' W 122°56'0 0.0
2018-May-31 12:28N 46°06' W 122°56'0 0.0
2018-May-31 04:37N 46°06' W 122°56'0 0.0
2018-May-31 04:30N 46°06' W 122°56'0 0.0
2018-May-31 04:01N 46°06' W 122°56'0 0.0
2018-May-31 03:30N 46°06' W 122°56'0 0.0
2018-May-31 02:58N 46°06' W 122°56'0 0.0
2018-May-31 02:31N 46°06' W 122°56'0 0.0
2018-May-31 01:55N 46°06' W 122°56'0 0.0
2018-May-31 01:31N 46°06' W 122°56'0 0.0
2018-May-31 01:00N 46°06' W 122°56'0 0.0
2018-May-31 00:28N 46°06' W 122°56'0 0.0
2018-May-30 23:58N 46°06' W 122°56'0 0.0
2018-May-30 23:30N 46°06' W 122°56'0 0.0
2018-May-30 23:00N 46°06' W 122°56'0 0.1
2018-May-30 22:16N 46°06' W 122°56'0 0.1
2018-May-30 21:57N 46°06' W 122°56'0 0.0
2018-May-30 21:22N 46°06' W 122°56'0 0.0
2018-May-30 21:00N 46°06' W 122°56'0 0.0
2018-May-30 19:51N 46°06' W 122°56'0 0.0
2018-May-30 19:31N 46°06' W 122°56'0 0.0
2018-May-30 19:00N 46°06' W 122°56'0 0.0
2018-May-30 18:31N 46°06' W 122°56'0 0.0
2018-May-30 17:52N 46°06' W 122°56'0 0.0
2018-May-30 17:28N 46°06' W 122°56'0 0.0
2018-May-30 16:57N 46°06' W 122°56'0 0.1
2018-May-30 16:31N 46°06' W 122°56'0 0.0
2018-May-30 15:15N 46°06' W 122°56'0 0.0
2018-May-30 15:00N 46°06' W 122°56'0 0.0
2018-May-30 14:25N 46°06' W 122°56'0 0.0
2018-May-30 14:00N 46°06' W 122°56'0 0.0
2018-May-30 13:19N 46°06' W 122°56'0 0.0
2018-May-30 12:52N 46°06' W 122°56'0 0.0
2018-May-30 12:28N 46°06' W 122°56'0 0.0
2018-May-30 11:58N 46°06' W 122°56'0 0.1
2018-May-30 11:28N 46°06' W 122°56'0 0.1
2018-May-30 11:01N 46°06' W 122°56'0 0.0
2018-May-30 10:12N 46°06' W 122°56'0 0.0
2018-May-30 10:00N 46°06' W 122°56'0 0.0
2018-May-30 09:22N 46°06' W 122°56'0 0.0
2018-May-30 08:55N 46°06' W 122°56'0 0.0
2018-May-30 08:30N 46°06' W 122°56'0 0.0
2018-May-30 08:00N 46°06' W 122°56'0 0.0
2018-May-30 07:25N 46°06' W 122°56'0 0.0
2018-May-30 06:58N 46°06' W 122°56'0 0.0
2018-May-30 06:28N 46°06' W 122°56'0 0.0
2018-May-30 05:16N 46°06' W 122°56'0 0.0
2018-May-30 04:54N 46°06' W 122°56'0 0.0
2018-May-30 04:30N 46°06' W 122°56'0 0.0
2018-May-30 04:00N 46°06' W 122°56'0 0.0
2018-May-30 03:28N 46°06' W 122°56'0 0.0
2018-May-30 02:43N 46°06' W 122°56'0 0.0
2018-May-30 02:28N 46°06' W 122°56'0 0.0
2018-May-30 01:49N 46°06' W 122°56'0 0.0
2018-May-30 01:28N 46°06' W 122°56'0 0.0
2018-May-30 01:00N 46°06' W 122°56'0 0.0
2018-May-29 23:31N 46°06' W 122°56'0 0.0
2018-May-29 23:01N 46°06' W 122°56'0 0.0
2018-May-29 22:25N 46°06' W 122°56'0 0.0
2018-May-29 22:00N 46°06' W 122°56'0 0.0
2018-May-29 21:25N 46°06' W 122°56'0 0.0
2018-May-29 20:58N 46°06' W 122°56'0 0.0
2018-May-29 20:22N 46°06' W 122°56'0 0.0
2018-May-29 19:58N 46°06' W 122°56'0 0.0
2018-May-29 19:30N 46°06' W 122°56'0 0.0
2018-May-29 19:00N 46°06' W 122°56'0 0.1
2018-May-29 18:31N 46°06' W 122°56'0 0.1
2018-May-29 18:01N 46°06' W 122°56'0 0.0
2018-May-29 17:19N 46°06' W 122°56'0 0.0
2018-May-29 16:57N 46°06' W 122°56'0 0.0
2018-May-29 16:31N 46°06' W 122°56'0 0.0
2018-May-29 15:58N 46°06' W 122°56'0 0.0
2018-May-29 15:31N 46°06' W 122°56'0 0.0
2018-May-29 14:52N 46°06' W 122°56'0 0.0
2018-May-29 14:31N 46°06' W 122°56'0 0.0
2018-May-29 14:00N 46°06' W 122°56'0 0.0
2018-May-29 13:30N 46°06' W 122°56'0 0.0
2018-May-29 12:57N 46°06' W 122°56'0 0.0
2018-May-29 12:10N 46°06' W 122°56'0 0.0
2018-May-29 11:40N 46°06' W 122°56'0 0.0
2018-May-29 11:31N 46°06' W 122°56'0 0.0
2018-May-29 10:55N 46°06' W 122°56'0 0.0
2018-May-29 10:28N 46°06' W 122°56'0 0.0
2018-May-29 09:57N 46°06' W 122°56'0 0.0
2018-May-29 09:28N 46°06' W 122°56'  
Track history (hours):
 
Tides and Currents Weather Stations Pressure Air Temp Water Temp Dewpoint Dewpoint Depression Visibility Wind Speed Wind Dir Waves Ship Positions

Yasa Eagle

Last reported at 2018-Jun-08 09:07 UTC. Time now 2018-Jun-24 03:41 UTC.
Position N 46°12' W 125°32'.
Warning: this ship's position is 15 days out of date.

Length 229 m; draft 13.1 m.

Type: Cargo ship. MMSI: 538004507.

Date/timePositionNaut miles runAvg speedWind from/ knotsBaromVisibWave heightAir tempDewpointWater temp
2018-Jun-08 09:07N 46°12' W 125°32'111.0
2018-Jun-08 08:59N 46°12' W 125°30'511.0
2018-Jun-08 08:30N 46°12' W 125°23'610.9
2018-Jun-08 07:58N 46°12' W 125°14'511.0
2018-Jun-08 07:31N 46°12' W 125°07'610.8
2018-Jun-08 06:59N 46°12' W 124°59'510.7
2018-Jun-08 06:30N 46°12' W 124°51'510.7
2018-Jun-08 06:00N 46°12' W 124°44'510.4
2018-Jun-08 05:31N 46°12' W 124°36'510.6
2018-Jun-08 05:01N 46°12' W 124°29'510.4
2018-Jun-08 04:30N 46°12' W 124°21'510.2
2018-Jun-08 04:00N 46°12' W 124°14'510.0
2018-Jun-08 03:31N 46°14' W 124°07'4 8.7
2018-Jun-08 03:01N 46°15' W 124°01'510.0
2018-Jun-08 02:31N 46°12' W 123°56'4 8.3
2018-Jun-08 02:01N 46°12' W 123°50'5 9.5
2018-Jun-08 01:31N 46°14' W 123°43'510.4
2018-Jun-08 01:01N 46°15' W 123°36'611.4
2018-Jun-08 00:31N 46°16' W 123°28'510.8
2018-Jun-08 00:01N 46°11' W 123°26'611.2
2018-Jun-07 23:30N 46°09' W 123°18'713.1
2018-Jun-07 23:01N 46°11' W 123°10'912.9
2018-Jun-07 22:20N 46°07' W 122°59'310.5
2018-Jun-07 22:00N 46°05' W 122°55'4 8.1
2018-Jun-07 21:30N 46°02' W 122°53'0 0.1
2018-Jun-07 21:00N 46°02' W 122°53'0 0.0
2018-Jun-07 20:30N 46°02' W 122°53'0 0.0
2018-Jun-07 20:00N 46°02' W 122°53'0 0.0
2018-Jun-07 19:09N 46°02' W 122°53'0 0.0
2018-Jun-07 18:48N 46°02' W 122°53'0 0.0
2018-Jun-07 18:30N 46°02' W 122°53'0 0.0
2018-Jun-07 18:00N 46°02' W 122°53'0 0.0
2018-Jun-07 16:24N 46°02' W 122°53'0 0.0
2018-Jun-07 16:00N 46°02' W 122°53'0 0.0
2018-Jun-07 15:30N 46°02' W 122°53'0 0.0
2018-Jun-07 14:57N 46°02' W 122°53'0 0.0
2018-Jun-07 14:24N 46°02' W 122°53'0 0.0
2018-Jun-07 14:00N 46°02' W 122°53'0 0.0
2018-Jun-07 13:30N 46°02' W 122°53'0 0.0
2018-Jun-07 12:57N 46°02' W 122°53'0 0.0
2018-Jun-07 12:30N 46°02' W 122°53'0 0.0
2018-Jun-07 11:57N 46°02' W 122°53'0 0.0
2018-Jun-07 11:15N 46°02' W 122°53'0 0.0
2018-Jun-07 10:57N 46°02' W 122°53'0 0.0
2018-Jun-07 10:15N 46°02' W 122°53'0 0.0
2018-Jun-07 10:00N 46°02' W 122°53'0 0.0
2018-Jun-07 09:30N 46°02' W 122°53'0 0.0
2018-Jun-07 09:00N 46°02' W 122°53'0 0.0
2018-Jun-07 08:12N 46°02' W 122°53'0 0.0
2018-Jun-07 07:54N 46°02' W 122°53'0 0.0
2018-Jun-07 07:30N 46°02' W 122°53'0 0.0
2018-Jun-07 06:10N 46°02' W 122°53'0 0.6
2018-Jun-07 06:01N 46°02' W 122°52'0 0.4
2018-Jun-07 05:28N 46°02' W 122°52'0 0.0
2018-Jun-07 04:58N 46°02' W 122°52'0 0.0
2018-Jun-07 04:28N 46°02' W 122°52'0 0.0
2018-Jun-07 03:43N 46°02' W 122°52'0 0.0
2018-Jun-07 03:16N 46°02' W 122°52'0 0.0
2018-Jun-07 02:58N 46°02' W 122°52'0 0.0
2018-Jun-07 02:16N 46°02' W 122°52'0 0.0
2018-Jun-07 01:58N 46°02' W 122°52'0 0.0
2018-Jun-07 01:22N 46°02' W 122°52'0 0.0
2018-Jun-07 00:55N 46°02' W 122°52'0 0.0
2018-Jun-07 00:10N 46°02' W 122°52'0 0.0
2018-Jun-06 23:52N 46°02' W 122°52'0 0.0
2018-Jun-06 23:16N 46°02' W 122°52'0 0.0
2018-Jun-06 22:40N 46°02' W 122°52'0 0.0
2018-Jun-06 22:13N 46°02' W 122°52'0 0.0
2018-Jun-06 21:55N 46°02' W 122°52'0 0.0
2018-Jun-06 21:28N 46°02' W 122°52'0 0.0
2018-Jun-06 20:58N 46°02' W 122°52'0 0.0
2018-Jun-06 20:19N 46°02' W 122°52'0 0.0
2018-Jun-06 19:46N 46°02' W 122°52'0 0.0
2018-Jun-06 19:13N 46°02' W 122°52'0 0.0
2018-Jun-06 18:52N 46°02' W 122°52'0 0.0
2018-Jun-06 18:28N 46°02' W 122°52'0 0.0
2018-Jun-06 17:58N 46°02' W 122°52'0 0.0
2018-Jun-06 17:25N 46°02' W 122°52'0 0.0
2018-Jun-06 16:58N 46°02' W 122°52'0 0.0
2018-Jun-06 16:28N 46°02' W 122°52'0 0.0
2018-Jun-06 15:58N 46°02' W 122°52'0 0.0
2018-Jun-06 15:25N 46°02' W 122°52'0 0.0
2018-Jun-06 14:52N 46°02' W 122°52'0 0.0
2018-Jun-06 14:28N 46°02' W 122°52'0 0.0
2018-Jun-06 13:55N 46°02' W 122°52'0 0.0
2018-Jun-06 13:19N 46°02' W 122°52'0 0.0
2018-Jun-06 12:55N 46°02' W 122°52'0 0.0
2018-Jun-06 12:28N 46°02' W 122°52'0 0.0
2018-Jun-06 11:55N 46°02' W 122°52'0 0.0
2018-Jun-06 11:28N 46°02' W 122°52'0 0.0
2018-Jun-06 10:55N 46°02' W 122°52'0 0.0
2018-Jun-06 10:28N 46°02' W 122°52'0 0.0
2018-Jun-06 09:58N 46°02' W 122°52'0 0.0
2018-Jun-06 09:28N 46°02' W 122°52'0 0.0
2018-Jun-06 08:55N 46°02' W 122°52'0 0.0
2018-Jun-06 08:22N 46°02' W 122°52'0 0.0
2018-Jun-06 07:52N 46°02' W 122°52'0 0.0
2018-Jun-06 07:28N 46°02' W 122°52'0 0.0
2018-Jun-06 06:55N 46°02' W 122°52'0 0.0
2018-Jun-06 06:05N 46°02' W 122°52'0 0.0
2018-Jun-06 05:58N 46°02' W 122°52'0 0.0
2018-Jun-06 05:28N 46°02' W 122°52'0 0.0
2018-Jun-06 04:16N 46°02' W 122°52'0 0.0
2018-Jun-06 03:49N 46°02' W 122°52'0 0.0
2018-Jun-06 03:22N 46°02' W 122°52'0 0.0
2018-Jun-06 02:49N 46°02' W 122°52'0 0.0
2018-Jun-06 02:22N 46°02' W 122°52'0 0.0
2018-Jun-06 01:58N 46°02' W 122°52'0 0.0
2018-Jun-06 01:25N 46°02' W 122°52'0 0.0
2018-Jun-06 00:46N 46°02' W 122°52'0 0.0
2018-Jun-06 00:28N 46°02' W 122°52'0 0.0
2018-Jun-05 23:55N 46°02' W 122°52'0 0.0
2018-Jun-05 23:28N 46°02' W 122°52'0 0.0
2018-Jun-05 22:58N 46°02' W 122°52'0 0.0
2018-Jun-05 22:22N 46°02' W 122°52'0 0.0
2018-Jun-05 21:58N 46°02' W 122°52'0 0.0
2018-Jun-05 21:28N 46°02' W 122°52'0 0.0
2018-Jun-05 20:58N 46°02' W 122°52'0 0.0
2018-Jun-05 20:25N 46°02' W 122°52'0 0.0
2018-Jun-05 19:58N 46°02' W 122°52'0 0.0
2018-Jun-05 19:28N 46°02' W 122°52'0 0.0
2018-Jun-05 18:52N 46°02' W 122°52'0 0.0
2018-Jun-05 18:28N 46°02' W 122°52'0 0.0
2018-Jun-05 17:25N 46°02' W 122°52'0 0.0
2018-Jun-05 16:43N 46°02' W 122°52'0 0.0
2018-Jun-05 16:10N 46°02' W 122°52'0 0.0
2018-Jun-05 15:37N 46°02' W 122°52'0 0.0
2018-Jun-05 15:25N 46°02' W 122°52'0 0.0
2018-Jun-05 14:55N 46°02' W 122°52'0 0.0
2018-Jun-05 14:25N 46°02' W 122°52'0 0.0
2018-Jun-05 13:55N 46°02' W 122°52'0 0.0
2018-Jun-05 13:28N 46°02' W 122°52'0 0.0
2018-Jun-05 12:34N 46°02' W 122°52'0 0.0
2018-Jun-05 12:28N 46°02' W 122°52'0 0.0
2018-Jun-05 11:31N 46°02' W 122°52'0 0.1
2018-Jun-05 11:25N 46°02' W 122°52'0 0.0
2018-Jun-05 10:58N 46°02' W 122°52'0 0.0
2018-Jun-05 10:28N 46°02' W 122°52'0 0.0
2018-Jun-05 09:55N 46°02' W 122°52'0 0.0
2018-Jun-05 09:28N 46°02' W 122°52'0 0.0
2018-Jun-05 08:58N 46°02' W 122°52'0 0.0
2018-Jun-05 08:28N 46°02' W 122°52'0 0.0
2018-Jun-05 07:16N 46°02' W 122°52'0 0.0
2018-Jun-05 06:37N 46°02' W 122°52'0 0.0
2018-Jun-05 06:10N 46°02' W 122°52'0 0.0
2018-Jun-05 05:52N 46°02' W 122°52'0 0.0
2018-Jun-05 05:28N 46°02' W 122°52'0 0.0
2018-Jun-05 04:55N 46°02' W 122°52'0 0.0
2018-Jun-05 04:16N 46°02' W 122°52'0 0.0
2018-Jun-05 03:49N 46°02' W 122°52'0 0.0
2018-Jun-05 03:28N 46°02' W 122°52'0 0.0
2018-Jun-05 01:40N 46°02' W 122°52'0 0.0
2018-Jun-05 01:13N 46°02' W 122°52'0 0.0
2018-Jun-05 00:58N 46°02' W 122°52'0 0.0
2018-Jun-05 00:28N 46°02' W 122°52'0 0.0
2018-Jun-04 23:58N 46°02' W 122°52'0 0.0
2018-Jun-04 23:28N 46°02' W 122°52'0 0.0
2018-Jun-04 22:58N 46°02' W 122°52'0 0.0
2018-Jun-04 22:25N 46°02' W 122°52'0 0.0
2018-Jun-04 21:55N 46°02' W 122°52'0 0.0
2018-Jun-04 21:28N 46°02' W 122°52'0 0.0
2018-Jun-04 20:55N 46°02' W 122°52'0 0.0
2018-Jun-04 20:28N 46°02' W 122°52'0 0.0
2018-Jun-04 19:23N 46°02' W 122°52'0 1.1
2018-Jun-04 18:59N 46°02' W 122°53'2 4.4
2018-Jun-04 18:30N 46°04' W 122°53'1 2.6
2018-Jun-04 18:00N 46°05' W 122°54'1 1.7
2018-Jun-04 17:28N 46°05' W 122°56'0 0.1
2018-Jun-04 17:00N 46°06' W 122°56'0 0.0
2018-Jun-04 16:30N 46°06' W 122°56'0 0.0
2018-Jun-04 15:58N 46°06' W 122°56'0 0.0
2018-Jun-04 15:31N 46°06' W 122°56'0 0.0
2018-Jun-04 15:00N 46°06' W 122°56'0 0.0
2018-Jun-04 14:30N 46°06' W 122°56'0 0.0
2018-Jun-04 13:18N 46°06' W 122°56'0 0.0
2018-Jun-04 12:58N 46°06' W 122°56'0 0.0
2018-Jun-04 12:09N 46°06' W 122°56'0 0.0
2018-Jun-04 11:58N 46°06' W 122°56'0 0.1
2018-Jun-04 11:21N 46°06' W 122°56'0 0.1
2018-Jun-04 10:58N 46°06' W 122°56'0 0.0
2018-Jun-04 10:31N 46°06' W 122°56'0 0.0
2018-Jun-04 10:00N 46°06' W 122°56'0 0.0
2018-Jun-04 09:31N 46°06' W 122°56'0 0.0
2018-Jun-04 09:01N 46°06' W 122°56'0 0.0
2018-Jun-04 08:30N 46°06' W 122°56'0 0.0
2018-Jun-04 08:01N 46°06' W 122°56'0 0.0
2018-Jun-04 07:30N 46°06' W 122°56'0 0.1
2018-Jun-04 06:58N 46°06' W 122°56'0 0.0
2018-Jun-04 06:30N 46°06' W 122°56'0 0.0
2018-Jun-04 05:55N 46°06' W 122°56'0 0.0
2018-Jun-04 05:30N 46°06' W 122°56'0 0.0
2018-Jun-04 05:00N 46°06' W 122°56'0 0.1
2018-Jun-04 04:28N 46°06' W 122°56'0 0.0
2018-Jun-04 04:01N 46°06' W 122°56'0 0.1
2018-Jun-04 03:30N 46°06' W 122°56'0 0.1
2018-Jun-04 02:54N 46°06' W 122°56'0 0.1
2018-Jun-04 02:31N 46°06' W 122°56'0 0.1
2018-Jun-04 02:00N 46°06' W 122°56'0 0.0
2018-Jun-04 01:28N 46°06' W 122°56'0 0.1
2018-Jun-04 01:01N 46°06' W 122°56'0 0.1
2018-Jun-04 00:27N 46°06' W 122°56'0 0.0
2018-Jun-04 00:00N 46°06' W 122°56'0 0.0
2018-Jun-03 23:25N 46°06' W 122°56'0 0.0
2018-Jun-03 22:46N 46°06' W 122°56'0 0.0
2018-Jun-03 22:25N 46°06' W 122°56'0 0.0
2018-Jun-03 21:52N 46°06' W 122°56'0 0.0
2018-Jun-03 21:28N 46°06' W 122°56'0 0.0
2018-Jun-03 21:00N 46°06' W 122°56'0 0.0
2018-Jun-03 20:28N 46°06' W 122°56'0 0.0
2018-Jun-03 19:52N 46°06' W 122°56'0 0.0
2018-Jun-03 19:28N 46°06' W 122°56'0 0.0
2018-Jun-03 19:01N 46°06' W 122°56'0 0.0
2018-Jun-03 17:34N 46°06' W 122°56'0 0.0
2018-Jun-03 17:31N 46°06' W 122°56'0 0.0
2018-Jun-03 16:58N 46°06' W 122°56'0 0.0
2018-Jun-03 16:28N 46°06' W 122°56'0 0.0
2018-Jun-03 16:00N 46°06' W 122°56'0 0.0
2018-Jun-03 15:24N 46°06' W 122°56'0 0.0
2018-Jun-03 15:00N 46°06' W 122°56'0 0.1
2018-Jun-03 14:31N 46°06' W 122°56'0 0.0
2018-Jun-03 13:58N 46°06' W 122°56'0 0.0
2018-Jun-03 13:15N 46°06' W 122°56'0 0.1
2018-Jun-03 12:58N 46°06' W 122°56'0 0.1
2018-Jun-03 12:19N 46°06' W 122°56'0 0.1
2018-Jun-03 12:01N 46°06' W 122°56'0 0.1
2018-Jun-03 11:27N 46°06' W 122°56'0 0.1
2018-Jun-03 10:57N 46°06' W 122°56'0 0.0
2018-Jun-03 10:31N 46°06' W 122°56'0 0.1
2018-Jun-03 10:01N 46°06' W 122°56'0 0.0
2018-Jun-03 09:31N 46°06' W 122°56'0 0.1
2018-Jun-03 08:58N 46°06' W 122°56'0 0.0
2018-Jun-03 08:31N 46°06' W 122°56'0 0.0
2018-Jun-03 07:49N 46°06' W 122°56'0 0.0
2018-Jun-03 07:28N 46°06' W 122°56'0 0.1
2018-Jun-03 06:58N 46°06' W 122°56'0 0.1
2018-Jun-03 06:31N 46°06' W 122°56'0 0.1
2018-Jun-03 06:01N 46°06' W 122°56'0 0.1
2018-Jun-03 05:30N 46°06' W 122°56'0 0.0
2018-Jun-03 04:58N 46°06' W 122°56'0 0.1
2018-Jun-03 04:30N 46°06' W 122°56'0 0.1
2018-Jun-03 03:46N 46°06' W 122°56'0 0.2
2018-Jun-03 03:30N 46°06' W 122°56'0 0.1
2018-Jun-03 03:00N 46°06' W 122°56'0 0.1
2018-Jun-03 02:30N 46°06' W 122°56'0 0.0
2018-Jun-03 01:40N 46°06' W 122°56'0 0.0
2018-Jun-03 01:16N 46°06' W 122°56'0 0.1
2018-Jun-03 00:58N 46°06' W 122°56'0 0.0
2018-Jun-03 00:31N 46°06' W 122°56'0 0.1
2018-Jun-03 00:01N 46°06' W 122°56'0 0.1
2018-Jun-02 23:25N 46°06' W 122°56'0 0.1
2018-Jun-02 23:00N 46°06' W 122°56'0 0.1
2018-Jun-02 22:24N 46°06' W 122°56'0 0.0
2018-Jun-02 22:01N 46°06' W 122°56'0 0.0
2018-Jun-02 21:30N 46°06' W 122°56'0 0.1
2018-Jun-02 20:55N 46°06' W 122°56'0 0.1
2018-Jun-02 20:28N 46°06' W 122°56'0 0.0
2018-Jun-02 19:45N 46°06' W 122°56'0 0.0
2018-Jun-02 19:13N 46°06' W 122°56'0 0.0
2018-Jun-02 18:46N 46°06' W 122°56'0 0.0
2018-Jun-02 18:28N 46°06' W 122°56'0 0.0
2018-Jun-02 17:57N 46°06' W 122°56'0 0.0
2018-Jun-02 17:30N 46°06' W 122°56'0 0.0
2018-Jun-02 16:57N 46°06' W 122°56'0 0.0
2018-Jun-02 16:30N 46°06' W 122°56'0 0.1
2018-Jun-02 16:00N 46°06' W 122°56'0 0.0
2018-Jun-02 15:30N 46°06' W 122°56'0 0.1
2018-Jun-02 14:43N 46°06' W 122°56'0 0.0
2018-Jun-02 14:16N 46°06' W 122°56'0 0.0
2018-Jun-02 14:01N 46°06' W 122°56'0 0.0
2018-Jun-02 13:18N 46°06' W 122°56'0 0.1
2018-Jun-02 12:57N 46°06' W 122°56'0 0.0
2018-Jun-02 12:28N 46°06' W 122°56'0 0.0
2018-Jun-02 12:01N 46°06' W 122°56'0 0.0
2018-Jun-02 11:30N 46°06' W 122°56'0 0.1
2018-Jun-02 11:00N 46°06' W 122°56'0 0.1
2018-Jun-02 10:27N 46°06' W 122°56'0 0.1
2018-Jun-02 10:01N 46°06' W 122°56'0 0.0
2018-Jun-02 09:31N 46°06' W 122°56'0 0.0
2018-Jun-02 08:57N 46°06' W 122°56'0 0.0
2018-Jun-02 08:30N 46°06' W 122°56'0 0.0
2018-Jun-02 08:01N 46°06' W 122°56'0 0.1
2018-Jun-02 07:16N 46°06' W 122°56'0 0.0
2018-Jun-02 06:57N 46°06' W 122°56'0 0.0
2018-Jun-02 06:31N 46°06' W 122°56'0 0.0
2018-Jun-02 06:01N 46°06' W 122°56'0 0.0
2018-Jun-02 05:31N 46°06' W 122°56'0 0.0
2018-Jun-02 05:00N 46°06' W 122°56'0 0.0
2018-Jun-02 04:24N 46°06' W 122°56'0 0.1
2018-Jun-02 03:55N 46°06' W 122°56'0 0.1
2018-Jun-02 03:30N 46°06' W 122°56'0 0.1
2018-Jun-02 03:01N 46°06' W 122°56'0 0.0
2018-Jun-02 02:28N 46°06' W 122°56'0 0.1
2018-Jun-02 01:58N 46°06' W 122°56'0 0.0
2018-Jun-02 01:30N 46°06' W 122°56'0 0.1
2018-Jun-02 00:58N 46°06' W 122°56'0 0.0
2018-Jun-02 00:31N 46°06' W 122°56'0 0.0
2018-Jun-02 00:01N 46°06' W 122°56'0 0.0
2018-Jun-01 23:31N 46°06' W 122°56'0 0.0
2018-Jun-01 22:58N 46°06' W 122°56'0 0.1
2018-Jun-01 22:30N 46°06' W 122°56'0 0.1
2018-Jun-01 22:01N 46°06' W 122°56'0 0.0
2018-Jun-01 21:24N 46°06' W 122°56'0 0.0
2018-Jun-01 21:00N 46°06' W 122°56'0 0.1
2018-Jun-01 20:30N 46°06' W 122°56'0 0.0
2018-Jun-01 20:00N 46°06' W 122°56'0 0.0
2018-Jun-01 19:31N 46°06' W 122°56'0 0.0
2018-Jun-01 19:01N 46°06' W 122°56'0 0.1
2018-Jun-01 18:30N 46°06' W 122°56'0 0.0
2018-Jun-01 18:01N 46°06' W 122°56'0 0.0
2018-Jun-01 17:31N 46°06' W 122°56'0 0.0
2018-Jun-01 17:01N 46°06' W 122°56'0 0.1
2018-Jun-01 16:22N 46°06' W 122°56'0 0.0
2018-Jun-01 16:01N 46°06' W 122°56'0 0.1
2018-Jun-01 15:12N 46°06' W 122°56'0 0.0
2018-Jun-01 14:54N 46°06' W 122°56'0 0.0
2018-Jun-01 14:31N 46°06' W 122°56'0 0.0
2018-Jun-01 13:36N 46°06' W 122°56'0 0.0
2018-Jun-01 13:30N 46°06' W 122°56'0 0.0
2018-Jun-01 12:57N 46°06' W 122°56'0 0.1
2018-Jun-01 12:31N 46°06' W 122°56'0 0.0
2018-Jun-01 11:58N 46°06' W 122°56'0 0.1
2018-Jun-01 11:31N 46°06' W 122°56'0 0.0
2018-Jun-01 11:01N 46°06' W 122°56'0 0.0
2018-Jun-01 10:31N 46°06' W 122°56'0 0.0
2018-Jun-01 10:01N 46°06' W 122°56'0 0.1
2018-Jun-01 09:28N 46°06' W 122°56'0 0.1
2018-Jun-01 08:40N 46°06' W 122°56'0 0.0
2018-Jun-01 08:27N 46°06' W 122°56'0 0.1
2018-Jun-01 08:01N 46°06' W 122°56'0 0.1
2018-Jun-01 07:24N 46°06' W 122°56'0 0.0
2018-Jun-01 06:54N 46°06' W 122°56'0 0.0
2018-Jun-01 06:30N 46°06' W 122°56'0 0.0
2018-Jun-01 05:43N 46°06' W 122°56'0 0.0
2018-Jun-01 05:30N 46°06' W 122°56'0 0.0
2018-Jun-01 04:42N 46°06' W 122°56'0 0.0
2018-Jun-01 04:31N 46°06' W 122°56'0 0.0
2018-Jun-01 04:00N 46°06' W 122°56'0 0.0
2018-Jun-01 03:13N 46°06' W 122°56'0 0.0
2018-Jun-01 02:58N 46°06' W 122°56'0 0.0
2018-Jun-01 02:25N 46°06' W 122°56'0 0.0
2018-Jun-01 01:55N 46°06' W 122°56'0 0.0
2018-Jun-01 01:19N 46°06' W 122°56'0 0.0
2018-Jun-01 00:57N 46°06' W 122°56'0 0.0
2018-Jun-01 00:22N 46°06' W 122°56'0 0.0
2018-Jun-01 00:01N 46°06' W 122°56'0 0.0
2018-May-31 23:28N 46°06' W 122°56'0 0.0
2018-May-31 22:55N 46°06' W 122°56'0 0.0
2018-May-31 22:28N 46°06' W 122°56'0 0.0
2018-May-31 22:00N 46°06' W 122°56'0 0.0
2018-May-31 21:31N 46°06' W 122°56'0 0.0
2018-May-31 20:57N 46°06' W 122°56'0 0.0
2018-May-31 20:30N 46°06' W 122°56'0 0.0
2018-May-31 20:01N 46°06' W 122°56'0 0.0
2018-May-31 19:28N 46°06' W 122°56'0 0.0
2018-May-31 19:01N 46°06' W 122°56'0 0.0
2018-May-31 17:34N 46°06' W 122°56'0 0.0
2018-May-31 17:30N 46°06' W 122°56'0 0.0
2018-May-31 17:01N 46°06' W 122°56'0 0.0
2018-May-31 16:31N 46°06' W 122°56'0 0.0
2018-May-31 15:55N 46°06' W 122°56'0 0.0
2018-May-31 15:30N 46°06' W 122°56'0 0.0
2018-May-31 14:40N 46°06' W 122°56'0 0.3
2018-May-31 14:31N 46°06' W 122°56'0 0.1
2018-May-31 13:54N 46°06' W 122°56'0 0.1
2018-May-31 13:25N 46°06' W 122°56'0 0.0
2018-May-31 12:58N 46°06' W 122°56'0 0.0
2018-May-31 12:28N 46°06' W 122°56'0 0.0
2018-May-31 04:37N 46°06' W 122°56'0 0.0
2018-May-31 04:30N 46°06' W 122°56'0 0.0
2018-May-31 04:01N 46°06' W 122°56'0 0.0
2018-May-31 03:30N 46°06' W 122°56'0 0.0
2018-May-31 02:58N 46°06' W 122°56'0 0.0
2018-May-31 02:31N 46°06' W 122°56'0 0.0
2018-May-31 01:55N 46°06' W 122°56'0 0.0
2018-May-31 01:31N 46°06' W 122°56'0 0.0
2018-May-31 01:00N 46°06' W 122°56'0 0.0
2018-May-31 00:28N 46°06' W 122°56'0 0.0
2018-May-30 23:58N 46°06' W 122°56'0 0.0
2018-May-30 23:30N 46°06' W 122°56'0 0.0
2018-May-30 23:00N 46°06' W 122°56'0 0.1
2018-May-30 22:16N 46°06' W 122°56'0 0.1
2018-May-30 21:57N 46°06' W 122°56'0 0.0
2018-May-30 21:22N 46°06' W 122°56'0 0.0
2018-May-30 21:00N 46°06' W 122°56'0 0.0
2018-May-30 19:51N 46°06' W 122°56'0 0.0
2018-May-30 19:31N 46°06' W 122°56'0 0.0
2018-May-30 19:00N 46°06' W 122°56'0 0.0
2018-May-30 18:31N 46°06' W 122°56'0 0.0
2018-May-30 17:52N 46°06' W 122°56'0 0.0
2018-May-30 17:28N 46°06' W 122°56'0 0.0
2018-May-30 16:57N 46°06' W 122°56'0 0.1
2018-May-30 16:31N 46°06' W 122°56'0 0.0
2018-May-30 15:15N 46°06' W 122°56'0 0.0
2018-May-30 15:00N 46°06' W 122°56'0 0.0
2018-May-30 14:25N 46°06' W 122°56'0 0.0
2018-May-30 14:00N 46°06' W 122°56'0 0.0
2018-May-30 13:19N 46°06' W 122°56'0 0.0
2018-May-30 12:52N 46°06' W 122°56'0 0.0
2018-May-30 12:28N 46°06' W 122°56'0 0.0
2018-May-30 11:58N 46°06' W 122°56'0 0.1
2018-May-30 11:28N 46°06' W 122°56'0 0.1
2018-May-30 11:01N 46°06' W 122°56'0 0.0
2018-May-30 10:12N 46°06' W 122°56'0 0.0
2018-May-30 10:00N 46°06' W 122°56'0 0.0
2018-May-30 09:22N 46°06' W 122°56'0 0.0
2018-May-30 08:55N 46°06' W 122°56'0 0.0
2018-May-30 08:30N 46°06' W 122°56'0 0.0
2018-May-30 08:00N 46°06' W 122°56'0 0.0
2018-May-30 07:25N 46°06' W 122°56'0 0.0
2018-May-30 06:58N 46°06' W 122°56'0 0.0
2018-May-30 06:28N 46°06' W 122°56'0 0.0
2018-May-30 05:16N 46°06' W 122°56'0 0.0
2018-May-30 04:54N 46°06' W 122°56'0 0.0
2018-May-30 04:30N 46°06' W 122°56'0 0.0
2018-May-30 04:00N 46°06' W 122°56'0 0.0
2018-May-30 03:28N 46°06' W 122°56'0 0.0
2018-May-30 02:43N 46°06' W 122°56'0 0.0
2018-May-30 02:28N 46°06' W 122°56'0 0.0
2018-May-30 01:49N 46°06' W 122°56'0 0.0
2018-May-30 01:28N 46°06' W 122°56'0 0.0
2018-May-30 01:00N 46°06' W 122°56'0 0.0
2018-May-29 23:31N 46°06' W 122°56'0 0.0
2018-May-29 23:01N 46°06' W 122°56'0 0.0
2018-May-29 22:25N 46°06' W 122°56'0 0.0
2018-May-29 22:00N 46°06' W 122°56'0 0.0
2018-May-29 21:25N 46°06' W 122°56'0 0.0
2018-May-29 20:58N 46°06' W 122°56'0 0.0
2018-May-29 20:22N 46°06' W 122°56'0 0.0
2018-May-29 19:58N 46°06' W 122°56'0 0.0
2018-May-29 19:30N 46°06' W 122°56'0 0.0
2018-May-29 19:00N 46°06' W 122°56'0 0.1
2018-May-29 18:31N 46°06' W 122°56'0 0.1
2018-May-29 18:01N 46°06' W 122°56'0 0.0
2018-May-29 17:19N 46°06' W 122°56'0 0.0
2018-May-29 16:57N 46°06' W 122°56'0 0.0
2018-May-29 16:31N 46°06' W 122°56'0 0.0
2018-May-29 15:58N 46°06' W 122°56'0 0.0
2018-May-29 15:31N 46°06' W 122°56'0 0.0
2018-May-29 14:52N 46°06' W 122°56'0 0.0
2018-May-29 14:31N 46°06' W 122°56'0 0.0
2018-May-29 14:00N 46°06' W 122°56'0 0.0
2018-May-29 13:30N 46°06' W 122°56'0 0.0
2018-May-29 12:57N 46°06' W 122°56'0 0.0
2018-May-29 12:10N 46°06' W 122°56'0 0.0
2018-May-29 11:40N 46°06' W 122°56'0 0.0
2018-May-29 11:31N 46°06' W 122°56'0 0.0
2018-May-29 10:55N 46°06' W 122°56'0 0.0
2018-May-29 10:28N 46°06' W 122°56'0 0.0
2018-May-29 09:57N 46°06' W 122°56'0 0.0
2018-May-29 09:28N 46°06' W 122°56'  

Dump ship's entire track history